createdAt,value
2019-02-26T00:00:03.161Z,99920.48
2019-02-26T00:02:35.234Z,99915.28
2019-02-26T00:05:06.075Z,99926.88
2019-02-26T00:07:36.518Z,99930.52
2019-02-26T00:10:08.581Z,99930.77
2019-02-26T00:12:38.904Z,99925.80
2019-02-26T00:15:10.215Z,99928.07
2019-02-26T00:17:42.640Z,99926.61
2019-02-26T00:20:13.271Z,99927.52
2019-02-26T00:22:44.602Z,99922.89
2019-02-26T00:25:17.844Z,99925.28
2019-02-26T00:27:49.577Z,99927.72
2019-02-26T00:30:20.012Z,99929.79
2019-02-26T00:32:50.318Z,99931.52
2019-02-26T00:35:21.231Z,99931.52
2019-02-26T00:37:53.471Z,99931.59
2019-02-26T00:40:24.675Z,99928.59
2019-02-26T00:42:58.997Z,99927.34
2019-02-26T00:45:29.469Z,99924.24
2019-02-26T00:47:59.596Z,99918.92
2019-02-26T00:50:30.403Z,99922.45
2019-02-26T00:53:03.441Z,99929.23
2019-02-26T00:55:34.736Z,99923.72
2019-02-26T00:58:08.356Z,99924.28
2019-02-26T01:00:37.955Z,99927.91
2019-02-26T01:03:09.302Z,99931.37
2019-02-26T01:05:40.998Z,99920.92
2019-02-26T01:08:13.321Z,99921.75
2019-02-26T01:10:45.836Z,99927.97
2019-02-26T01:13:16.040Z,99921.05
2019-02-26T01:15:46.527Z,99919.09
2019-02-26T01:18:18.021Z,99906.48
2019-02-26T01:20:52.286Z,99910.14
2019-02-26T01:23:24.372Z,99908.87
2019-02-26T01:25:55.347Z,99909.94
2019-02-26T01:28:27.082Z,99901.32
2019-02-26T01:30:57.945Z,99899.83
2019-02-26T01:33:30.298Z,99912.36
2019-02-26T01:36:02.712Z,99912.36
2019-02-26T01:38:33.135Z,99906.64
2019-02-26T01:41:03.621Z,99904.44
2019-02-26T01:43:33.909Z,99892.13
2019-02-26T01:46:04.161Z,99886.37
2019-02-26T01:48:36.240Z,99881.08
2019-02-26T01:51:06.379Z,99872.16
2019-02-26T01:53:36.669Z,99865.25
2019-02-26T01:56:06.959Z,99862.95
2019-02-26T01:58:37.244Z,99860.12
2019-02-26T02:01:09.957Z,99862.52
2019-02-26T02:03:39.511Z,99862.39
2019-02-26T02:06:11.799Z,99863.98
2019-02-26T02:08:45.432Z,99858.52
2019-02-26T02:11:13.724Z,99863.34
2019-02-26T02:13:44.147Z,99863.01
2019-02-26T02:16:14.327Z,99859.66
2019-02-26T02:18:48.140Z,99857.11
2019-02-26T02:21:16.538Z,99855.78
2019-02-26T02:23:48.655Z,99850.59
2019-02-26T02:26:18.864Z,99853.88
2019-02-26T02:28:49.027Z,99843.11
2019-02-26T02:31:22.013Z,99837.66
2019-02-26T02:33:51.308Z,99829.68
2019-02-26T02:36:23.641Z,99837.85
2019-02-26T02:38:53.723Z,99831.27
2019-02-26T02:41:24.252Z,99827.38
2019-02-26T02:43:54.477Z,99824.09
2019-02-26T02:46:25.672Z,99834.72
2019-02-26T02:48:55.791Z,99835.75
2019-02-26T02:51:28.026Z,99844.48
2019-02-26T02:53:59.355Z,99844.28
2019-02-26T02:56:33.209Z,99837.41
2019-02-26T02:59:05.415Z,99832.93
2019-02-26T03:01:35.362Z,99831.21
2019-02-26T03:04:05.624Z,99826.64
2019-02-26T03:06:38.559Z,99829.30
2019-02-26T03:09:17.053Z,99829.80
2019-02-26T03:11:49.429Z,99832.66
2019-02-26T03:14:19.044Z,99829.91
2019-02-26T03:16:52.386Z,99829.47
2019-02-26T03:19:24.211Z,99838.44
2019-02-26T03:21:55.013Z,99838.08
2019-02-26T03:24:28.400Z,99834.73
2019-02-26T03:26:57.635Z,99847.52
2019-02-26T03:29:27.860Z,99838.27
2019-02-26T03:31:58.258Z,99843.85
2019-02-26T03:34:28.456Z,99839.14
2019-02-26T03:36:59.937Z,99833.28
2019-02-26T03:39:30.676Z,99839.77
2019-02-26T03:42:01.232Z,99830.69
2019-02-26T03:44:31.340Z,99820.12
2019-02-26T03:47:01.563Z,99822.52
2019-02-26T03:49:31.761Z,99827.30
2019-02-26T03:52:01.952Z,99828.77
2019-02-26T03:54:32.061Z,99828.63
2019-02-26T03:57:02.245Z,99823.75
2019-02-26T03:59:32.461Z,99829.61
2019-02-26T04:02:02.713Z,99823.97
2019-02-26T04:04:33.730Z,99823.38
2019-02-26T04:07:06.502Z,99824.79
2019-02-26T04:09:39.120Z,99822.78
2019-02-26T04:12:10.378Z,99815.80
2019-02-26T04:14:40.339Z,99813.53
2019-02-26T04:17:10.678Z,99813.05
2019-02-26T04:19:43.632Z,99807.10
2019-02-26T04:22:34.693Z,99814.52
2019-02-26T04:25:29.946Z,99814.17
2019-02-26T04:28:27.232Z,99811.19
2019-02-26T04:31:30.646Z,99793.73
2019-02-26T04:35:03.427Z,99798.64
2019-02-26T04:38:01.605Z,99797.13
2019-02-26T04:41:12.403Z,99800.02
2019-02-26T04:44:06.117Z,99791.72
2019-02-26T04:47:15.516Z,99791.27
2019-02-26T04:49:46.026Z,99787.78
2019-02-26T04:52:21.157Z,99793.44
2019-02-26T04:54:52.270Z,99786.41
2019-02-26T04:57:22.477Z,99783.61
2019-02-26T04:59:55.478Z,99789.02
2019-02-26T05:02:25.464Z,99789.46
2019-02-26T05:04:55.938Z,99791.72
2019-02-26T05:07:26.167Z,99792.64
2019-02-26T05:09:58.786Z,99790.92
2019-02-26T05:12:30.973Z,99786.06
2019-02-26T05:15:00.621Z,99780.27
2019-02-26T05:17:33.306Z,99782.91
2019-02-26T05:20:04.272Z,99777.80
2019-02-26T05:22:35.198Z,99769.98
2019-02-26T05:25:07.446Z,99774.06
2019-02-26T05:27:39.984Z,99763.36
2019-02-26T05:30:13.183Z,99757.27
2019-02-26T05:32:41.772Z,99769.36
2019-02-26T05:35:14.143Z,99765.96
2019-02-26T05:37:44.098Z,99764.59
2019-02-26T05:40:16.401Z,99768.61
2019-02-26T05:42:46.485Z,99772.14
2019-02-26T05:45:17.038Z,99766.00
2019-02-26T05:47:50.179Z,99769.34
2019-02-26T05:50:19.167Z,99767.52
2019-02-26T05:52:50.257Z,99771.45
2019-02-26T05:55:23.669Z,99769.48
2019-02-26T05:57:54.488Z,99769.80
2019-02-26T06:00:28.937Z,99755.63
2019-02-26T06:02:56.822Z,99769.26
2019-02-26T06:05:27.028Z,99763.16
2019-02-26T06:07:57.631Z,99775.97
2019-02-26T06:10:30.478Z,99778.52
2019-02-26T06:13:02.273Z,99788.78
2019-02-26T06:15:34.163Z,99782.16
2019-02-26T06:18:04.856Z,99782.16
2019-02-26T06:20:36.596Z,99789.13
2019-02-26T06:23:07.243Z,99796.73
2019-02-26T06:25:37.446Z,99792.07
2019-02-26T06:28:12.085Z,99800.14
2019-02-26T06:30:39.723Z,99800.89
2019-02-26T06:33:12.181Z,99811.77
2019-02-26T06:35:43.961Z,99800.80
2019-02-26T06:38:14.281Z,99799.77
2019-02-26T06:40:47.114Z,99799.05
2019-02-26T06:43:16.517Z,99801.16
2019-02-26T06:45:47.793Z,99796.63
2019-02-26T06:48:20.880Z,99799.23
2019-02-26T06:50:51.228Z,99798.84
2019-02-26T06:53:21.652Z,99795.16
2019-02-26T06:55:52.193Z,99798.69
2019-02-26T06:58:25.990Z,99797.30
2019-02-26T07:00:57.661Z,99807.77
2019-02-26T07:03:27.881Z,99813.61
2019-02-26T07:06:01.693Z,99814.58
2019-02-26T07:08:30.993Z,99818.34
2019-02-26T07:11:03.858Z,99821.80
2019-02-26T07:13:36.736Z,99831.43
2019-02-26T07:16:06.574Z,99831.28
2019-02-26T07:18:37.385Z,99845.92
2019-02-26T07:21:08.005Z,99840.68
2019-02-26T07:23:40.027Z,99852.93
2019-02-26T07:26:11.728Z,99854.19
2019-02-26T07:28:44.101Z,99857.45
2019-02-26T07:31:14.620Z,99860.27
2019-02-26T07:33:44.852Z,99863.97
2019-02-26T07:36:16.161Z,99863.56
2019-02-26T07:38:49.675Z,99872.02
2019-02-26T07:41:21.345Z,99864.32
2019-02-26T07:43:54.603Z,99862.16
2019-02-26T07:46:24.660Z,99862.06
2019-02-26T07:48:57.199Z,99859.73
2019-02-26T07:51:29.357Z,99857.04
2019-02-26T07:54:00.781Z,99851.28
2019-02-26T07:56:32.741Z,99851.44
2019-02-26T07:59:06.794Z,99855.86
2019-02-26T08:01:37.489Z,99844.52
2019-02-26T08:04:09.346Z,99849.37
2019-02-26T08:06:40.037Z,99855.53
2019-02-26T08:09:13.960Z,99854.28
2019-02-26T08:11:44.400Z,99850.95
2019-02-26T08:14:16.188Z,99853.25
2019-02-26T08:16:51.385Z,99856.98
2019-02-26T08:19:19.677Z,99856.11
2019-02-26T08:21:50.816Z,99851.30
2019-02-26T08:24:24.500Z,99846.92
2019-02-26T08:26:54.135Z,99848.28
2019-02-26T08:29:26.536Z,99852.11
2019-02-26T08:31:58.990Z,99849.30
2019-02-26T08:34:28.867Z,99849.19
2019-02-26T08:36:59.073Z,99849.37
2019-02-26T08:39:29.323Z,99843.31
2019-02-26T08:42:08.911Z,99838.47
2019-02-26T08:44:39.264Z,99837.77
2019-02-26T08:47:11.980Z,99842.42
2019-02-26T08:49:43.477Z,99832.08
2019-02-26T08:52:16.847Z,99829.94
2019-02-26T08:54:46.013Z,99832.18
2019-02-26T08:57:16.271Z,99832.18
2019-02-26T08:59:47.275Z,99839.05
2019-02-26T09:02:18.442Z,99833.32
2019-02-26T09:04:48.623Z,99828.23
2019-02-26T09:07:19.613Z,99826.39
2019-02-26T09:09:54.301Z,99828.06
2019-02-26T09:12:24.737Z,99833.20
2019-02-26T09:14:55.228Z,99829.44
2019-02-26T09:17:26.787Z,99831.16
2019-02-26T09:20:08.391Z,99831.16
2019-02-26T09:22:29.927Z,99836.50
2019-02-26T09:25:02.354Z,99825.99
2019-02-26T09:27:35.124Z,99825.53
2019-02-26T09:30:08.467Z,99827.59
2019-02-26T09:32:40.284Z,99830.38
2019-02-26T09:35:11.707Z,99826.65
2019-02-26T09:37:42.896Z,99824.38
2019-02-26T09:40:17.210Z,99819.17
2019-02-26T09:42:51.393Z,99812.39
2019-02-26T09:45:20.967Z,99814.19
2019-02-26T09:47:54.332Z,99807.21
2019-02-26T09:50:23.749Z,99804.11
2019-02-26T09:52:58.133Z,99809.90
2019-02-26T09:55:25.807Z,99811.39
2019-02-26T09:57:56.099Z,99808.97
2019-02-26T10:00:29.500Z,99806.10
2019-02-26T10:02:59.190Z,99810.82
2019-02-26T10:05:29.531Z,99810.95
2019-02-26T10:08:02.139Z,99805.52
2019-02-26T10:10:33.795Z,99809.05
2019-02-26T10:13:04.798Z,99817.86
2019-02-26T10:15:37.336Z,99815.58
2019-02-26T10:18:09.391Z,99808.42
2019-02-26T10:20:39.410Z,99811.66
2019-02-26T10:23:09.787Z,99805.52
2019-02-26T10:25:40.041Z,99810.19
2019-02-26T10:28:11.593Z,99803.63
2019-02-26T10:30:42.088Z,99805.66
2019-02-26T10:33:12.476Z,99800.82
2019-02-26T10:35:45.080Z,99795.63
2019-02-26T10:38:15.607Z,99805.91
2019-02-26T10:40:53.207Z,99804.50
2019-02-26T10:43:18.949Z,99800.21
2019-02-26T10:45:50.538Z,99802.83
2019-02-26T10:48:24.443Z,99796.17
2019-02-26T10:50:53.505Z,99795.22
2019-02-26T10:53:24.621Z,99795.86
2019-02-26T10:55:55.038Z,99788.16
2019-02-26T10:58:25.183Z,99791.55
2019-02-26T11:00:58.541Z,99783.83
2019-02-26T11:03:29.706Z,99780.20
2019-02-26T11:05:59.615Z,99789.59
2019-02-26T11:08:32.806Z,99781.10
2019-02-26T11:11:04.810Z,99772.69
2019-02-26T11:13:37.384Z,99763.68
2019-02-26T11:16:07.943Z,99768.97
2019-02-26T11:18:39.964Z,99760.91
2019-02-26T11:21:11.394Z,99764.14
2019-02-26T11:23:44.055Z,99760.84
2019-02-26T11:26:18.103Z,99762.55
2019-02-26T11:28:48.099Z,99760.61
2019-02-26T11:31:20.454Z,99756.59
2019-02-26T11:33:52.209Z,99748.39
2019-02-26T11:36:22.449Z,99741.98
2019-02-26T11:38:52.845Z,99743.73
2019-02-26T11:41:24.378Z,99738.25
2019-02-26T11:43:56.033Z,99739.09
2019-02-26T11:46:27.250Z,99739.16
2019-02-26T11:48:59.125Z,99735.30
2019-02-26T11:51:37.051Z,99741.96
2019-02-26T11:54:04.979Z,99734.63
2019-02-26T11:56:39.677Z,99732.52
2019-02-26T11:59:11.192Z,99733.39
2019-02-26T12:01:41.995Z,99729.05
2019-02-26T12:04:14.212Z,99719.42
2019-02-26T12:06:44.184Z,99730.95
2019-02-26T12:09:16.147Z,99722.41
2019-02-26T12:11:46.639Z,99711.73
2019-02-26T12:14:19.437Z,99714.73
2019-02-26T12:16:49.299Z,99716.84
2019-02-26T12:19:19.515Z,99706.84
2019-02-26T12:21:52.016Z,99701.16
2019-02-26T12:24:24.207Z,99700.22
2019-02-26T12:26:54.822Z,99699.22
2019-02-26T12:29:28.382Z,99694.77
2019-02-26T12:31:58.920Z,99690.17
2019-02-26T12:34:30.360Z,99694.02
2019-02-26T12:37:02.644Z,99686.88
2019-02-26T12:39:32.924Z,99682.73
2019-02-26T12:42:03.623Z,99680.34
2019-02-26T12:44:35.539Z,99682.45
2019-02-26T12:47:06.100Z,99674.38
2019-02-26T12:49:38.495Z,99664.95
2019-02-26T12:52:09.027Z,99669.91
2019-02-26T12:54:42.605Z,99663.36
2019-02-26T12:57:12.080Z,99657.83
2019-02-26T12:59:43.663Z,99659.74
2019-02-26T13:02:17.031Z,99650.33
2019-02-26T13:04:48.084Z,99649.12
2019-02-26T13:07:19.444Z,99655.38
2019-02-26T13:09:54.165Z,99648.30
2019-02-26T13:12:23.906Z,99642.66
2019-02-26T13:15:02.273Z,99642.31
2019-02-26T13:17:29.479Z,99635.15
2019-02-26T13:20:01.662Z,99637.57
2019-02-26T13:22:31.400Z,99637.69
2019-02-26T13:25:03.656Z,99633.22
2019-02-26T13:27:35.234Z,99634.66
2019-02-26T13:30:07.765Z,99621.69
2019-02-26T13:32:55.098Z,99622.16
2019-02-26T13:35:10.314Z,99623.14
2019-02-26T13:37:42.295Z,99627.99
2019-02-26T13:40:15.259Z,99620.48
2019-02-26T13:42:49.880Z,99619.70
2019-02-26T13:45:19.559Z,99611.41
2019-02-26T13:47:50.134Z,99609.25
2019-02-26T13:50:23.312Z,99602.73
2019-02-26T13:52:54.000Z,99602.77
2019-02-26T13:55:25.149Z,99599.41
2019-02-26T13:57:55.695Z,99595.53
2019-02-26T14:00:27.123Z,99593.88
2019-02-26T14:02:57.729Z,99584.86
2019-02-26T14:05:27.946Z,99584.04
2019-02-26T14:07:58.197Z,99580.77
2019-02-26T14:10:28.506Z,99583.71
2019-02-26T14:12:58.670Z,99577.31
2019-02-26T14:15:29.021Z,99584.59
2019-02-26T14:17:59.246Z,99572.87
2019-02-26T14:20:29.532Z,99576.36
2019-02-26T14:23:00.107Z,99561.84
2019-02-26T14:25:30.583Z,99568.33
2019-02-26T14:28:01.610Z,99565.02
2019-02-26T14:30:32.224Z,99557.44
2019-02-26T14:33:02.668Z,99554.27
2019-02-26T14:35:33.175Z,99550.03
2019-02-26T14:38:03.716Z,99547.05
2019-02-26T14:40:34.010Z,99547.02
2019-02-26T14:43:04.194Z,99539.13
2019-02-26T14:45:36.048Z,99537.96
2019-02-26T14:48:06.486Z,99528.87
2019-02-26T14:50:36.785Z,99514.61
2019-02-26T14:53:07.319Z,99519.55
2019-02-26T14:55:37.675Z,99511.23
2019-02-26T14:58:08.053Z,99510.33
2019-02-26T15:00:38.974Z,99506.89
2019-02-26T15:03:09.529Z,99507.59
2019-02-26T15:05:39.842Z,99506.95
2019-02-26T15:08:10.736Z,99494.09
2019-02-26T15:10:41.584Z,99495.70
2019-02-26T15:13:12.260Z,99490.44
2019-02-26T15:15:44.120Z,99493.55
2019-02-26T15:18:14.442Z,99487.64
2019-02-26T15:20:44.855Z,99489.48
2019-02-26T15:23:15.178Z,99488.05
2019-02-26T15:25:45.431Z,99480.15
2019-02-26T15:28:16.087Z,99494.42
2019-02-26T15:30:46.507Z,99484.15
2019-02-26T15:33:16.826Z,99488.67
2019-02-26T15:35:47.109Z,99485.14
2019-02-26T15:38:17.456Z,99484.61
2019-02-26T15:40:48.203Z,99477.84
2019-02-26T15:43:19.265Z,99479.73
2019-02-26T15:45:52.183Z,99476.91
2019-02-26T15:48:21.760Z,99480.41
2019-02-26T15:50:52.117Z,99483.30
2019-02-26T15:53:23.839Z,99486.97
2019-02-26T15:55:59.048Z,99483.78
2019-02-26T15:58:26.577Z,99487.92
2019-02-26T16:00:56.826Z,99484.94
2019-02-26T16:03:29.482Z,99492.59
2019-02-26T16:05:59.276Z,99492.14
2019-02-26T16:08:34.798Z,99484.43
2019-02-26T16:11:05.441Z,99479.12
2019-02-26T16:13:35.719Z,99478.14
2019-02-26T16:16:05.985Z,99475.11
2019-02-26T16:18:36.307Z,99475.07
2019-02-26T16:21:07.020Z,99472.11
2019-02-26T16:23:37.437Z,99478.44
2019-02-26T16:26:08.717Z,99479.38
2019-02-26T16:28:39.186Z,99473.86
2019-02-26T16:31:09.835Z,99473.70
2019-02-26T16:33:39.995Z,99480.41
2019-02-26T16:36:10.732Z,99474.47
2019-02-26T16:38:41.330Z,99479.20
2019-02-26T16:41:12.130Z,99481.20
2019-02-26T16:43:42.758Z,99482.69
2019-02-26T16:46:13.146Z,99481.05
2019-02-26T16:48:43.923Z,99487.03
2019-02-26T16:51:16.638Z,99485.20
2019-02-26T16:53:46.417Z,99485.25
2019-02-26T16:56:16.752Z,99480.55
2019-02-26T16:58:47.451Z,99485.71
2019-02-26T17:01:19.698Z,99489.31
2019-02-26T17:03:50.271Z,99486.34
2019-02-26T17:06:21.195Z,99496.17
2019-02-26T17:08:51.562Z,99491.87
2019-02-26T17:11:22.298Z,99501.33
2019-02-26T17:13:52.831Z,99505.01
2019-02-26T17:16:23.207Z,99501.38
2019-02-26T17:18:53.463Z,99508.64
2019-02-26T17:21:24.013Z,99497.80
2019-02-26T17:23:54.540Z,99506.76
2019-02-26T17:26:24.890Z,99504.59
2019-02-26T17:28:55.253Z,99503.58
2019-02-26T17:31:25.797Z,99508.45
2019-02-26T17:33:56.462Z,99512.69
2019-02-26T17:36:26.761Z,99521.33
2019-02-26T17:38:57.424Z,99526.95
2019-02-26T17:41:27.983Z,99532.44
2019-02-26T17:43:59.496Z,99524.77
2019-02-26T17:46:31.419Z,99525.69
2019-02-26T17:49:02.865Z,99520.97
2019-02-26T17:51:33.920Z,99525.50
2019-02-26T17:54:04.651Z,99526.55
2019-02-26T17:56:35.328Z,99524.95
2019-02-26T17:59:05.505Z,99526.09
2019-02-26T18:01:35.824Z,99528.89
2019-02-26T18:04:06.644Z,99531.36
2019-02-26T18:06:37.042Z,99527.58
2019-02-26T18:09:07.207Z,99527.34
2019-02-26T18:11:38.398Z,99537.45
2019-02-26T18:14:08.517Z,99537.46
2019-02-26T18:16:39.171Z,99540.44
2019-02-26T18:19:12.158Z,99531.45
2019-02-26T18:21:43.635Z,99542.56
2019-02-26T18:24:13.847Z,99545.00
2019-02-26T18:26:44.285Z,99544.42
2019-02-26T18:29:14.601Z,99547.34
2019-02-26T18:31:45.445Z,99548.66
2019-02-26T18:34:15.824Z,99545.34
2019-02-26T18:36:46.590Z,99543.67
2019-02-26T18:39:17.039Z,99538.77
2019-02-26T18:41:50.758Z,99538.45
2019-02-26T18:44:20.536Z,99537.81
2019-02-26T18:46:51.719Z,99541.98
2019-02-26T18:49:22.442Z,99541.12
2019-02-26T18:51:53.852Z,99543.17
2019-02-26T18:54:25.399Z,99543.13
2019-02-26T18:56:56.017Z,99536.59
2019-02-26T18:59:26.300Z,99534.89
2019-02-26T19:01:56.893Z,99536.20
2019-02-26T19:04:27.582Z,99538.80
2019-02-26T19:06:59.748Z,99541.13
2019-02-26T19:09:31.875Z,99539.62
2019-02-26T19:12:02.483Z,99540.26
2019-02-26T19:14:34.142Z,99543.05
2019-02-26T19:17:05.248Z,99542.84
2019-02-26T19:19:35.946Z,99541.61
2019-02-26T19:22:06.402Z,99540.48
2019-02-26T19:24:38.323Z,99544.19
2019-02-26T19:27:08.746Z,99543.50
2019-02-26T19:29:39.489Z,99544.77
2019-02-26T19:32:10.022Z,99550.08
2019-02-26T19:34:41.003Z,99550.79
2019-02-26T19:37:11.491Z,99550.00
2019-02-26T19:39:42.409Z,99545.95
2019-02-26T19:42:17.406Z,99549.58
2019-02-26T19:44:45.856Z,99555.12
2019-02-26T19:47:16.583Z,99545.56
2019-02-26T19:49:47.346Z,99549.72
2019-02-26T19:52:18.968Z,99548.28
2019-02-26T19:54:49.650Z,99552.92
2019-02-26T19:57:20.598Z,99550.73
2019-02-26T19:59:51.693Z,99549.69
2019-02-26T20:02:22.575Z,99548.91
2019-02-26T20:04:53.291Z,99552.55
2019-02-26T20:07:24.196Z,99547.64
2019-02-26T20:09:54.545Z,99551.52
2019-02-26T20:12:28.588Z,99545.78
2019-02-26T20:14:57.465Z,99543.02
2019-02-26T20:17:27.988Z,99543.31
2019-02-26T20:19:58.380Z,99547.15
2019-02-26T20:22:30.557Z,99552.72
2019-02-26T20:25:02.444Z,99536.97
2019-02-26T20:27:33.039Z,99539.73
2019-02-26T20:30:03.896Z,99532.56
2019-02-26T20:32:36.037Z,99530.16
2019-02-26T20:35:07.084Z,99532.44
2019-02-26T20:37:37.766Z,99532.05
2019-02-26T20:40:10.622Z,99528.84
2019-02-26T20:42:41.453Z,99531.75
2019-02-26T20:45:17.727Z,99530.25
2019-02-26T20:47:46.778Z,99528.23
2019-02-26T20:50:20.438Z,99528.32
2019-02-26T20:52:51.174Z,99533.27
2019-02-26T20:55:21.679Z,99533.27
2019-02-26T20:57:52.482Z,99535.00
2019-02-26T21:00:25.310Z,99537.34
2019-02-26T21:02:56.946Z,99532.69
2019-02-26T21:05:27.761Z,99518.97
2019-02-26T21:07:59.002Z,99524.75
2019-02-26T21:10:30.352Z,99526.02
2019-02-26T21:13:02.466Z,99519.04
2019-02-26T21:15:33.579Z,99519.82
2019-02-26T21:18:04.195Z,99524.04
2019-02-26T21:20:35.172Z,99519.77
2019-02-26T21:23:06.043Z,99524.70
2019-02-26T21:25:37.179Z,99523.66
2019-02-26T21:28:07.793Z,99525.91
2019-02-26T21:30:38.270Z,99524.96
2019-02-26T21:33:08.962Z,99521.37
2019-02-26T21:35:42.044Z,99520.72
2019-02-26T21:38:13.141Z,99528.41
2019-02-26T21:40:43.683Z,99532.48
2019-02-26T21:43:14.327Z,99531.02
2019-02-26T21:45:49.114Z,99527.67
2019-02-26T21:48:17.146Z,99523.57
2019-02-26T21:50:48.122Z,99518.88
2019-02-26T21:53:18.556Z,99516.70
2019-02-26T21:55:48.959Z,99518.78
2019-02-26T21:58:19.697Z,99527.11
2019-02-26T22:00:50.224Z,99523.92
2019-02-26T22:03:24.582Z,99527.39
2019-02-26T22:05:53.257Z,99526.03
2019-02-26T22:08:24.816Z,99518.47
2019-02-26T22:10:55.587Z,99527.98
2019-02-26T22:13:29.090Z,99525.33
2019-02-26T22:15:58.139Z,99527.74
2019-02-26T22:18:30.833Z,99527.11
2019-02-26T22:21:00.669Z,99525.91
2019-02-26T22:23:34.111Z,99522.88
2019-02-26T22:26:03.274Z,99526.97
2019-02-26T22:28:33.751Z,99527.39
2019-02-26T22:31:04.260Z,99526.97
2019-02-26T22:33:34.550Z,99526.18
2019-02-26T22:36:04.806Z,99521.28
2019-02-26T22:38:35.030Z,99525.20
2019-02-26T22:41:05.658Z,99530.86
2019-02-26T22:43:35.970Z,99530.27
2019-02-26T22:46:06.156Z,99524.50
2019-02-26T22:48:36.602Z,99515.70
2019-02-26T22:51:06.811Z,99520.25
2019-02-26T22:53:37.170Z,99513.61
2019-02-26T22:56:08.758Z,99509.22
2019-02-26T22:58:39.130Z,99506.17
2019-02-26T23:01:18.795Z,99509.76
2019-02-26T23:03:50.562Z,99510.81
2019-02-26T23:06:21.148Z,99507.12
2019-02-26T23:08:51.546Z,99512.45
2019-02-26T23:11:22.126Z,99508.96
2019-02-26T23:13:52.360Z,99508.55
2019-02-26T23:16:22.905Z,99518.18
2019-02-26T23:18:53.570Z,99523.53
2019-02-26T23:21:24.399Z,99525.88
2019-02-26T23:23:55.395Z,99531.22
2019-02-26T23:26:25.950Z,99535.25
2019-02-26T23:28:56.151Z,99534.44
2019-02-26T23:31:26.616Z,99536.52
2019-02-26T23:33:56.891Z,99537.58
2019-02-26T23:36:28.609Z,99531.53
2019-02-26T23:38:58.772Z,99522.80
2019-02-26T23:41:30.806Z,99530.39
2019-02-26T23:44:01.324Z,99530.20
2019-02-26T23:46:33.123Z,99530.70
2019-02-26T23:49:03.491Z,99537.06
2019-02-26T23:51:34.954Z,99536.67
2019-02-26T23:54:07.361Z,99538.94
2019-02-26T23:56:37.265Z,99542.52
2019-02-26T23:59:07.497Z,99539.56
